sensor_id;sensor_type;location;lat;lon;timestamp;P1;durP1;ratioP1;P2;durP2;ratioP2
14118;SDS011;7138;49.246;9.100;2022-10-13T00:00:41;25.40;;;11.43;;
14118;SDS011;7138;49.246;9.100;2022-10-13T00:03:09;18.10;;;11.65;;
14118;SDS011;7138;49.246;9.100;2022-10-13T00:05:40;15.52;;;11.45;;
14118;SDS011;7138;49.246;9.100;2022-10-13T00:08:07;15.48;;;11.13;;
14118;SDS011;7138;49.246;9.100;2022-10-13T00:10:34;15.18;;;10.90;;
14118;SDS011;7138;49.246;9.100;2022-10-13T00:13:02;16.02;;;11.38;;
14118;SDS011;7138;49.246;9.100;2022-10-13T00:15:28;13.38;;;10.10;;
14118;SDS011;7138;49.246;9.100;2022-10-13T00:17:55;15.02;;;9.88;;
14118;SDS011;7138;49.246;9.100;2022-10-13T00:20:21;14.88;;;10.18;;
14118;SDS011;7138;49.246;9.100;2022-10-13T00:22:48;15.60;;;10.13;;
14118;SDS011;7138;49.246;9.100;2022-10-13T00:25:14;15.05;;;10.07;;
14118;SDS011;7138;49.246;9.100;2022-10-13T00:27:40;15.38;;;11.13;;
14118;SDS011;7138;49.246;9.100;2022-10-13T00:30:06;13.82;;;9.82;;
14118;SDS011;7138;49.246;9.100;2022-10-13T00:32:33;12.90;;;9.85;;
14118;SDS011;7138;49.246;9.100;2022-10-13T00:34:59;12.38;;;9.50;;
14118;SDS011;7138;49.246;9.100;2022-10-13T00:37:25;11.25;;;9.10;;
14118;SDS011;7138;49.246;9.100;2022-10-13T00:39:52;12.68;;;9.38;;
14118;SDS011;7138;49.246;9.100;2022-10-13T00:42:18;11.90;;;9.25;;
14118;SDS011;7138;49.246;9.100;2022-10-13T00:44:58;12.18;;;9.90;;
14118;SDS011;7138;49.246;9.100;2022-10-13T00:47:30;13.45;;;10.30;;
14118;SDS011;7138;49.246;9.100;2022-10-13T00:50:03;14.60;;;10.73;;
14118;SDS011;7138;49.246;9.100;2022-10-13T00:52:34;13.27;;;9.98;;
14118;SDS011;7138;49.246;9.100;2022-10-13T00:55:05;15.13;;;9.73;;
14118;SDS011;7138;49.246;9.100;2022-10-13T00:57:35;12.98;;;9.07;;
14118;SDS011;7138;49.246;9.100;2022-10-13T01:00:06;13.38;;;9.25;;
14118;SDS011;7138;49.246;9.100;2022-10-13T01:02:34;12.50;;;9.52;;
14118;SDS011;7138;49.246;9.100;2022-10-13T01:05:02;15.75;;;9.35;;
14118;SDS011;7138;49.246;9.100;2022-10-13T01:07:31;12.83;;;9.07;;
14118;SDS011;7138;49.246;9.100;2022-10-13T01:09:58;15.10;;;9.05;;
14118;SDS011;7138;49.246;9.100;2022-10-13T01:12:31;22.85;;;10.73;;
14118;SDS011;7138;49.246;9.100;2022-10-13T01:15:15;24.90;;;11.30;;
14118;SDS011;7138;49.246;9.100;2022-10-13T01:17:52;24.90;;;11.05;;
14118;SDS011;7138;49.246;9.100;2022-10-13T01:20:38;17.25;;;10.55;;
14118;SDS011;7138;49.246;9.100;2022-10-13T01:23:30;31.88;;;10.95;;
14118;SDS011;7138;49.246;9.100;2022-10-13T01:26:41;29.27;;;10.60;;
14118;SDS011;7138;49.246;9.100;2022-10-13T01:29:45;25.42;;;10.82;;
14118;SDS011;7138;49.246;9.100;2022-10-13T01:32:56;24.75;;;10.05;;
14118;SDS011;7138;49.246;9.100;2022-10-13T01:35:47;23.10;;;9.52;;
14118;SDS011;7138;49.246;9.100;2022-10-13T01:38:28;21.33;;;8.65;;
14118;SDS011;7138;49.246;9.100;2022-10-13T01:41:07;17.25;;;9.13;;
14118;SDS011;7138;49.246;9.100;2022-10-13T01:43:42;14.60;;;8.90;;
14118;SDS011;7138;49.246;9.100;2022-10-13T01:46:16;12.68;;;9.15;;
14118;SDS011;7138;49.246;9.100;2022-10-13T01:48:48;12.20;;;9.35;;
14118;SDS011;7138;49.246;9.100;2022-10-13T01:51:19;19.63;;;9.77;;
14118;SDS011;7138;49.246;9.100;2022-10-13T01:53:49;22.52;;;10.20;;
14118;SDS011;7138;49.246;9.100;2022-10-13T01:56:16;14.40;;;9.68;;
14118;SDS011;7138;49.246;9.100;2022-10-13T01:58:42;14.75;;;9.52;;
14118;SDS011;7138;49.246;9.100;2022-10-13T02:01:18;11.70;;;9.50;;
14118;SDS011;7138;49.246;9.100;2022-10-13T02:04:05;12.55;;;9.77;;
14118;SDS011;7138;49.246;9.100;2022-10-13T02:06:45;15.90;;;9.85;;
14118;SDS011;7138;49.246;9.100;2022-10-13T02:09:18;22.50;;;10.50;;
14118;SDS011;7138;49.246;9.100;2022-10-13T02:11:51;22.27;;;10.15;;
14118;SDS011;7138;49.246;9.100;2022-10-13T02:14:24;16.88;;;9.55;;
14118;SDS011;7138;49.246;9.100;2022-10-13T02:16:58;14.82;;;9.27;;
14118;SDS011;7138;49.246;9.100;2022-10-13T02:19:28;14.38;;;9.95;;
14118;SDS011;7138;49.246;9.100;2022-10-13T02:21:58;20.33;;;9.35;;
14118;SDS011;7138;49.246;9.100;2022-10-13T02:24:24;23.77;;;10.02;;
14118;SDS011;7138;49.246;9.100;2022-10-13T02:26:51;21.77;;;9.98;;
14118;SDS011;7138;49.246;9.100;2022-10-13T02:29:17;22.45;;;9.63;;
14118;SDS011;7138;49.246;9.100;2022-10-13T02:31:44;17.58;;;10.18;;
14118;SDS011;7138;49.246;9.100;2022-10-13T02:34:12;20.52;;;10.75;;
14118;SDS011;7138;49.246;9.100;2022-10-13T02:36:39;25.70;;;11.30;;
14118;SDS011;7138;49.246;9.100;2022-10-13T02:39:05;28.73;;;11.25;;
14118;SDS011;7138;49.246;9.100;2022-10-13T02:41:33;39.08;;;12.68;;
14118;SDS011;7138;49.246;9.100;2022-10-13T02:43:59;48.58;;;12.65;;
14118;SDS011;7138;49.246;9.100;2022-10-13T02:46:25;40.85;;;12.98;;
14118;SDS011;7138;49.246;9.100;2022-10-13T02:48:51;34.38;;;12.02;;
14118;SDS011;7138;49.246;9.100;2022-10-13T02:51:18;34.53;;;12.77;;
14118;SDS011;7138;49.246;9.100;2022-10-13T02:53:44;46.00;;;13.10;;
14118;SDS011;7138;49.246;9.100;2022-10-13T02:56:10;42.97;;;12.50;;
14118;SDS011;7138;49.246;9.100;2022-10-13T02:58:36;42.45;;;12.57;;
14118;SDS011;7138;49.246;9.100;2022-10-13T03:01:06;34.42;;;12.27;;
14118;SDS011;7138;49.246;9.100;2022-10-13T03:03:34;49.15;;;14.05;;
14118;SDS011;7138;49.246;9.100;2022-10-13T03:06:00;45.92;;;13.40;;
14118;SDS011;7138;49.246;9.100;2022-10-13T03:08:28;48.38;;;13.55;;
14118;SDS011;7138;49.246;9.100;2022-10-13T03:10:55;53.53;;;13.90;;
14118;SDS011;7138;49.246;9.100;2022-10-13T03:13:22;42.67;;;14.10;;
14118;SDS011;7138;49.246;9.100;2022-10-13T03:15:48;47.33;;;13.95;;
14118;SDS011;7138;49.246;9.100;2022-10-13T03:18:14;48.28;;;15.60;;
14118;SDS011;7138;49.246;9.100;2022-10-13T03:20:40;46.40;;;15.25;;
14118;SDS011;7138;49.246;9.100;2022-10-13T03:23:06;37.03;;;13.43;;
14118;SDS011;7138;49.246;9.100;2022-10-13T03:25:33;52.35;;;14.88;;
14118;SDS011;7138;49.246;9.100;2022-10-13T03:27:59;79.78;;;15.88;;
14118;SDS011;7138;49.246;9.100;2022-10-13T03:30:25;59.58;;;15.60;;
14118;SDS011;7138;49.246;9.100;2022-10-13T03:32:51;42.55;;;15.32;;
14118;SDS011;7138;49.246;9.100;2022-10-13T03:35:17;48.88;;;16.15;;
14118;SDS011;7138;49.246;9.100;2022-10-13T03:37:43;47.08;;;17.25;;
14118;SDS011;7138;49.246;9.100;2022-10-13T03:40:09;55.83;;;18.10;;
14118;SDS011;7138;49.246;9.100;2022-10-13T03:42:38;54.65;;;17.42;;
14118;SDS011;7138;49.246;9.100;2022-10-13T03:45:04;65.70;;;15.10;;
14118;SDS011;7138;49.246;9.100;2022-10-13T03:47:33;41.97;;;16.30;;
14118;SDS011;7138;49.246;9.100;2022-10-13T03:49:59;47.58;;;16.38;;
14118;SDS011;7138;49.246;9.100;2022-10-13T03:52:25;54.70;;;16.15;;
14118;SDS011;7138;49.246;9.100;2022-10-13T03:54:51;49.90;;;16.05;;
14118;SDS011;7138;49.246;9.100;2022-10-13T03:57:17;57.88;;;16.23;;
14118;SDS011;7138;49.246;9.100;2022-10-13T03:59:44;73.45;;;17.33;;
14118;SDS011;7138;49.246;9.100;2022-10-13T04:02:10;61.50;;;16.35;;
14118;SDS011;7138;49.246;9.100;2022-10-13T04:04:36;57.60;;;15.73;;
14118;SDS011;7138;49.246;9.100;2022-10-13T04:09:36;46.33;;;16.83;;
14118;SDS011;7138;49.246;9.100;2022-10-13T04:12:02;59.53;;;16.77;;
14118;SDS011;7138;49.246;9.100;2022-10-13T04:14:28;48.67;;;15.60;;
14118;SDS011;7138;49.246;9.100;2022-10-13T04:16:56;55.35;;;17.05;;
14118;SDS011;7138;49.246;9.100;2022-10-13T04:19:21;70.32;;;18.25;;
14118;SDS011;7138;49.246;9.100;2022-10-13T04:21:47;76.90;;;17.45;;
14118;SDS011;7138;49.246;9.100;2022-10-13T04:24:13;94.13;;;18.58;;
14118;SDS011;7138;49.246;9.100;2022-10-13T04:26:41;81.57;;;20.38;;
14118;SDS011;7138;49.246;9.100;2022-10-13T04:29:08;67.97;;;20.00;;
14118;SDS011;7138;49.246;9.100;2022-10-13T04:31:36;60.92;;;20.55;;
14118;SDS011;7138;49.246;9.100;2022-10-13T04:34:04;55.65;;;19.15;;
14118;SDS011;7138;49.246;9.100;2022-10-13T04:36:31;56.75;;;20.55;;
14118;SDS011;7138;49.246;9.100;2022-10-13T04:38:57;51.20;;;19.70;;
14118;SDS011;7138;49.246;9.100;2022-10-13T04:41:23;64.00;;;20.90;;
14118;SDS011;7138;49.246;9.100;2022-10-13T04:43:50;56.15;;;19.55;;
14118;SDS011;7138;49.246;9.100;2022-10-13T04:46:19;51.75;;;19.48;;
14118;SDS011;7138;49.246;9.100;2022-10-13T04:48:47;53.85;;;20.05;;
14118;SDS011;7138;49.246;9.100;2022-10-13T04:51:16;43.70;;;18.15;;
14118;SDS011;7138;49.246;9.100;2022-10-13T04:53:44;44.33;;;18.58;;
14118;SDS011;7138;49.246;9.100;2022-10-13T04:56:11;48.78;;;18.75;;
14118;SDS011;7138;49.246;9.100;2022-10-13T04:58:40;45.70;;;19.33;;
14118;SDS011;7138;49.246;9.100;2022-10-13T05:01:11;48.47;;;18.05;;
14118;SDS011;7138;49.246;9.100;2022-10-13T05:03:40;43.75;;;18.27;;
14118;SDS011;7138;49.246;9.100;2022-10-13T05:06:12;50.55;;;19.27;;
14118;SDS011;7138;49.246;9.100;2022-10-13T05:08:40;50.20;;;18.80;;
14118;SDS011;7138;49.246;9.100;2022-10-13T05:11:06;44.45;;;17.95;;
14118;SDS011;7138;49.246;9.100;2022-10-13T05:13:32;40.97;;;18.45;;
14118;SDS011;7138;49.246;9.100;2022-10-13T05:15:57;45.90;;;17.40;;
14118;SDS011;7138;49.246;9.100;2022-10-13T05:18:23;94.53;;;18.15;;
14118;SDS011;7138;49.246;9.100;2022-10-13T05:20:49;57.90;;;18.45;;
14118;SDS011;7138;49.246;9.100;2022-10-13T05:23:15;46.88;;;17.75;;
14118;SDS011;7138;49.246;9.100;2022-10-13T05:25:42;41.90;;;18.15;;
14118;SDS011;7138;49.246;9.100;2022-10-13T05:28:09;68.95;;;17.17;;
14118;SDS011;7138;49.246;9.100;2022-10-13T05:30:35;146.63;;;17.00;;
14118;SDS011;7138;49.246;9.100;2022-10-13T05:33:00;72.85;;;16.73;;
14118;SDS011;7138;49.246;9.100;2022-10-13T05:35:27;111.55;;;17.42;;
14118;SDS011;7138;49.246;9.100;2022-10-13T05:37:53;84.20;;;17.45;;
14118;SDS011;7138;49.246;9.100;2022-10-13T05:40:19;58.67;;;18.92;;
14118;SDS011;7138;49.246;9.100;2022-10-13T05:42:49;86.72;;;18.00;;
14118;SDS011;7138;49.246;9.100;2022-10-13T05:45:16;88.30;;;17.48;;
14118;SDS011;7138;49.246;9.100;2022-10-13T05:47:45;70.55;;;16.23;;
14118;SDS011;7138;49.246;9.100;2022-10-13T05:50:11;74.53;;;15.77;;
14118;SDS011;7138;49.246;9.100;2022-10-13T05:52:37;32.53;;;15.80;;
14118;SDS011;7138;49.246;9.100;2022-10-13T05:55:04;40.70;;;14.68;;
14118;SDS011;7138;49.246;9.100;2022-10-13T05:57:35;38.03;;;15.15;;
14118;SDS011;7138;49.246;9.100;2022-10-13T06:00:07;34.38;;;14.48;;
14118;SDS011;7138;49.246;9.100;2022-10-13T06:02:38;22.67;;;13.57;;
14118;SDS011;7138;49.246;9.100;2022-10-13T06:05:11;26.40;;;14.05;;
14118;SDS011;7138;49.246;9.100;2022-10-13T06:07:41;24.67;;;13.60;;
14118;SDS011;7138;49.246;9.100;2022-10-13T06:10:10;23.85;;;14.52;;
14118;SDS011;7138;49.246;9.100;2022-10-13T06:12:36;24.90;;;13.95;;
14118;SDS011;7138;49.246;9.100;2022-10-13T06:15:03;27.10;;;14.82;;
14118;SDS011;7138;49.246;9.100;2022-10-13T06:17:31;25.83;;;13.95;;
14118;SDS011;7138;49.246;9.100;2022-10-13T06:19:59;22.48;;;12.65;;
14118;SDS011;7138;49.246;9.100;2022-10-13T06:22:26;22.27;;;12.77;;
14118;SDS011;7138;49.246;9.100;2022-10-13T06:24:52;22.02;;;13.10;;
14118;SDS011;7138;49.246;9.100;2022-10-13T06:27:17;21.85;;;13.30;;
14118;SDS011;7138;49.246;9.100;2022-10-13T06:29:43;24.00;;;13.00;;
14118;SDS011;7138;49.246;9.100;2022-10-13T06:32:09;24.15;;;12.77;;
14118;SDS011;7138;49.246;9.100;2022-10-13T06:34:36;21.45;;;11.88;;
14118;SDS011;7138;49.246;9.100;2022-10-13T06:37:02;22.02;;;12.23;;
14118;SDS011;7138;49.246;9.100;2022-10-13T06:39:28;20.58;;;12.35;;
14118;SDS011;7138;49.246;9.100;2022-10-13T06:41:54;20.90;;;12.00;;
14118;SDS011;7138;49.246;9.100;2022-10-13T06:44:20;19.50;;;12.10;;
14118;SDS011;7138;49.246;9.100;2022-10-13T06:46:46;20.50;;;12.40;;
14118;SDS011;7138;49.246;9.100;2022-10-13T06:49:12;18.90;;;11.60;;
14118;SDS011;7138;49.246;9.100;2022-10-13T06:51:39;17.92;;;11.75;;
14118;SDS011;7138;49.246;9.100;2022-10-13T06:54:05;21.05;;;12.50;;
14118;SDS011;7138;49.246;9.100;2022-10-13T06:56:30;17.13;;;10.75;;
14118;SDS011;7138;49.246;9.100;2022-10-13T06:58:56;17.13;;;11.68;;
14118;SDS011;7138;49.246;9.100;2022-10-13T07:01:22;17.67;;;10.50;;
14118;SDS011;7138;49.246;9.100;2022-10-13T07:03:48;17.45;;;11.85;;
14118;SDS011;7138;49.246;9.100;2022-10-13T07:06:14;17.58;;;11.30;;
14118;SDS011;7138;49.246;9.100;2022-10-13T07:08:42;18.20;;;12.18;;
14118;SDS011;7138;49.246;9.100;2022-10-13T07:11:09;16.67;;;11.65;;
14118;SDS011;7138;49.246;9.100;2022-10-13T07:13:38;18.27;;;11.85;;
14118;SDS011;7138;49.246;9.100;2022-10-13T07:16:05;19.55;;;12.63;;
14118;SDS011;7138;49.246;9.100;2022-10-13T07:18:32;18.30;;;12.82;;
14118;SDS011;7138;49.246;9.100;2022-10-13T07:20:58;19.75;;;12.70;;
14118;SDS011;7138;49.246;9.100;2022-10-13T07:23:25;16.98;;;11.35;;
14118;SDS011;7138;49.246;9.100;2022-10-13T07:25:53;18.75;;;11.00;;
14118;SDS011;7138;49.246;9.100;2022-10-13T07:28:23;17.13;;;12.15;;
14118;SDS011;7138;49.246;9.100;2022-10-13T07:30:50;19.95;;;12.45;;
14118;SDS011;7138;49.246;9.100;2022-10-13T07:33:16;23.38;;;12.48;;
14118;SDS011;7138;49.246;9.100;2022-10-13T07:35:42;23.42;;;13.45;;
14118;SDS011;7138;49.246;9.100;2022-10-13T07:38:08;19.10;;;13.00;;
14118;SDS011;7138;49.246;9.100;2022-10-13T07:40:34;21.48;;;13.25;;
14118;SDS011;7138;49.246;9.100;2022-10-13T07:43:01;20.40;;;13.27;;
14118;SDS011;7138;49.246;9.100;2022-10-13T07:45:27;19.73;;;13.25;;
14118;SDS011;7138;49.246;9.100;2022-10-13T07:47:53;25.02;;;13.65;;
14118;SDS011;7138;49.246;9.100;2022-10-13T07:50:20;21.40;;;13.63;;
14118;SDS011;7138;49.246;9.100;2022-10-13T07:52:46;19.25;;;13.63;;
14118;SDS011;7138;49.246;9.100;2022-10-13T07:55:12;20.75;;;13.75;;
14118;SDS011;7138;49.246;9.100;2022-10-13T07:57:38;21.73;;;13.98;;
14118;SDS011;7138;49.246;9.100;2022-10-13T08:00:06;22.85;;;14.20;;
14118;SDS011;7138;49.246;9.100;2022-10-13T08:02:34;28.13;;;14.70;;
14118;SDS011;7138;49.246;9.100;2022-10-13T08:05:01;24.73;;;14.30;;
14118;SDS011;7138;49.246;9.100;2022-10-13T08:07:27;20.98;;;14.00;;
14118;SDS011;7138;49.246;9.100;2022-10-13T08:09:53;28.70;;;15.95;;
14118;SDS011;7138;49.246;9.100;2022-10-13T08:12:19;22.23;;;14.00;;
14118;SDS011;7138;49.246;9.100;2022-10-13T08:14:48;23.02;;;15.18;;
14118;SDS011;7138;49.246;9.100;2022-10-13T08:17:16;24.10;;;14.60;;
14118;SDS011;7138;49.246;9.100;2022-10-13T08:19:42;25.80;;;14.65;;
14118;SDS011;7138;49.246;9.100;2022-10-13T08:22:08;28.40;;;14.73;;
14118;SDS011;7138;49.246;9.100;2022-10-13T08:24:34;21.70;;;14.40;;
14118;SDS011;7138;49.246;9.100;2022-10-13T08:27:00;27.10;;;15.98;;
14118;SDS011;7138;49.246;9.100;2022-10-13T08:29:26;21.25;;;13.52;;
14118;SDS011;7138;49.246;9.100;2022-10-13T08:31:52;26.15;;;15.02;;
14118;SDS011;7138;49.246;9.100;2022-10-13T08:34:20;23.80;;;14.55;;
14118;SDS011;7138;49.246;9.100;2022-10-13T08:36:47;24.95;;;14.77;;
14118;SDS011;7138;49.246;9.100;2022-10-13T08:39:16;25.58;;;13.75;;
14118;SDS011;7138;49.246;9.100;2022-10-13T08:41:43;22.42;;;14.20;;
14118;SDS011;7138;49.246;9.100;2022-10-13T08:44:10;22.90;;;13.25;;
14118;SDS011;7138;49.246;9.100;2022-10-13T08:46:49;21.27;;;13.35;;
14118;SDS011;7138;49.246;9.100;2022-10-13T08:49:28;22.88;;;12.85;;
14118;SDS011;7138;49.246;9.100;2022-10-13T08:51:55;22.05;;;13.85;;
14118;SDS011;7138;49.246;9.100;2022-10-13T08:54:23;22.15;;;12.80;;
14118;SDS011;7138;49.246;9.100;2022-10-13T08:56:50;27.95;;;13.30;;
14118;SDS011;7138;49.246;9.100;2022-10-13T08:59:17;23.45;;;13.32;;
14118;SDS011;7138;49.246;9.100;2022-10-13T09:01:45;24.52;;;13.68;;
14118;SDS011;7138;49.246;9.100;2022-10-13T09:04:23;25.67;;;14.40;;
14118;SDS011;7138;49.246;9.100;2022-10-13T09:07:02;21.63;;;13.13;;
14118;SDS011;7138;49.246;9.100;2022-10-13T09:09:36;21.52;;;13.40;;
14118;SDS011;7138;49.246;9.100;2022-10-13T09:12:03;27.95;;;14.85;;
14118;SDS011;7138;49.246;9.100;2022-10-13T09:14:32;22.75;;;14.15;;
14118;SDS011;7138;49.246;9.100;2022-10-13T09:17:11;23.75;;;14.30;;
14118;SDS011;7138;49.246;9.100;2022-10-13T09:19:42;23.67;;;14.27;;
14118;SDS011;7138;49.246;9.100;2022-10-13T09:22:14;32.53;;;14.50;;
14118;SDS011;7138;49.246;9.100;2022-10-13T09:24:47;26.23;;;13.27;;
14118;SDS011;7138;49.246;9.100;2022-10-13T09:27:41;22.85;;;12.52;;
14118;SDS011;7138;49.246;9.100;2022-10-13T09:30:23;22.23;;;13.07;;
14118;SDS011;7138;49.246;9.100;2022-10-13T09:32:59;19.88;;;12.68;;
14118;SDS011;7138;49.246;9.100;2022-10-13T09:35:43;23.73;;;13.25;;
14118;SDS011;7138;49.246;9.100;2022-10-13T09:38:12;22.48;;;12.23;;
14118;SDS011;7138;49.246;9.100;2022-10-13T09:43:16;21.77;;;12.45;;
14118;SDS011;7138;49.246;9.100;2022-10-13T09:45:54;22.33;;;11.82;;
14118;SDS011;7138;49.246;9.100;2022-10-13T09:48:22;23.45;;;13.48;;
14118;SDS011;7138;49.246;9.100;2022-10-13T09:50:55;22.75;;;12.50;;
14118;SDS011;7138;49.246;9.100;2022-10-13T09:53:23;24.87;;;12.93;;
14118;SDS011;7138;49.246;9.100;2022-10-13T09:56:06;23.98;;;13.65;;
14118;SDS011;7138;49.246;9.100;2022-10-13T09:58:43;24.17;;;12.45;;
14118;SDS011;7138;49.246;9.100;2022-10-13T10:01:20;25.63;;;14.05;;
14118;SDS011;7138;49.246;9.100;2022-10-13T10:03:50;18.52;;;12.05;;
14118;SDS011;7138;49.246;9.100;2022-10-13T10:06:19;19.42;;;12.77;;
14118;SDS011;7138;49.246;9.100;2022-10-13T10:08:48;23.20;;;13.48;;
14118;SDS011;7138;49.246;9.100;2022-10-13T10:11:23;22.02;;;13.00;;
14118;SDS011;7138;49.246;9.100;2022-10-13T10:13:54;25.60;;;13.27;;
14118;SDS011;7138;49.246;9.100;2022-10-13T10:16:22;22.02;;;13.52;;
14118;SDS011;7138;49.246;9.100;2022-10-13T10:18:57;25.58;;;13.75;;
14118;SDS011;7138;49.246;9.100;2022-10-13T10:21:32;20.90;;;12.57;;
14118;SDS011;7138;49.246;9.100;2022-10-13T10:24:07;21.85;;;12.52;;
14118;SDS011;7138;49.246;9.100;2022-10-13T10:26:51;24.98;;;13.52;;
14118;SDS011;7138;49.246;9.100;2022-10-13T10:29:23;22.40;;;12.05;;
14118;SDS011;7138;49.246;9.100;2022-10-13T10:32:04;21.48;;;12.50;;
14118;SDS011;7138;49.246;9.100;2022-10-13T10:34:51;22.23;;;12.75;;
14118;SDS011;7138;49.246;9.100;2022-10-13T10:37:27;26.20;;;12.88;;
14118;SDS011;7138;49.246;9.100;2022-10-13T10:40:15;27.77;;;13.95;;
14118;SDS011;7138;49.246;9.100;2022-10-13T10:43:14;21.73;;;12.30;;
14118;SDS011;7138;49.246;9.100;2022-10-13T10:46:03;21.52;;;12.60;;
14118;SDS011;7138;49.246;9.100;2022-10-13T10:48:38;25.45;;;13.32;;
14118;SDS011;7138;49.246;9.100;2022-10-13T10:51:06;21.35;;;12.25;;
14118;SDS011;7138;49.246;9.100;2022-10-13T10:53:38;22.70;;;12.23;;
14118;SDS011;7138;49.246;9.100;2022-10-13T10:56:17;20.70;;;13.05;;
14118;SDS011;7138;49.246;9.100;2022-10-13T10:58:56;26.67;;;13.13;;
14118;SDS011;7138;49.246;9.100;2022-10-13T11:01:37;23.88;;;12.93;;
14118;SDS011;7138;49.246;9.100;2022-10-13T11:04:37;22.35;;;12.68;;
14118;SDS011;7138;49.246;9.100;2022-10-13T11:07:09;25.52;;;12.38;;
14118;SDS011;7138;49.246;9.100;2022-10-13T11:12:46;18.92;;;11.70;;
14118;SDS011;7138;49.246;9.100;2022-10-13T11:15:40;21.80;;;12.10;;
14118;SDS011;7138;49.246;9.100;2022-10-13T11:24:49;20.17;;;12.80;;
14118;SDS011;7138;49.246;9.100;2022-10-13T11:27:38;22.73;;;12.88;;
14118;SDS011;7138;49.246;9.100;2022-10-13T11:36:34;18.52;;;10.93;;
14118;SDS011;7138;49.246;9.100;2022-10-13T11:39:27;22.52;;;12.55;;
14118;SDS011;7138;49.246;9.100;2022-10-13T11:42:31;21.13;;;12.50;;
14118;SDS011;7138;49.246;9.100;2022-10-13T11:45:42;19.92;;;12.55;;
14118;SDS011;7138;49.246;9.100;2022-10-13T11:55:16;22.42;;;11.27;;
14118;SDS011;7138;49.246;9.100;2022-10-13T11:58:06;20.63;;;10.82;;
14118;SDS011;7138;49.246;9.100;2022-10-13T12:00:33;22.02;;;11.65;;
14118;SDS011;7138;49.246;9.100;2022-10-13T12:03:00;25.05;;;11.85;;
14118;SDS011;7138;49.246;9.100;2022-10-13T12:05:26;19.50;;;10.40;;
14118;SDS011;7138;49.246;9.100;2022-10-13T12:07:54;21.48;;;11.75;;
14118;SDS011;7138;49.246;9.100;2022-10-13T12:10:29;20.90;;;10.63;;
14118;SDS011;7138;49.246;9.100;2022-10-13T12:12:58;20.83;;;11.57;;
14118;SDS011;7138;49.246;9.100;2022-10-13T12:15:27;20.60;;;10.80;;
14118;SDS011;7138;49.246;9.100;2022-10-13T12:18:00;18.20;;;11.27;;
14118;SDS011;7138;49.246;9.100;2022-10-13T12:20:42;20.25;;;10.60;;
14118;SDS011;7138;49.246;9.100;2022-10-13T12:23:17;20.90;;;10.40;;
14118;SDS011;7138;49.246;9.100;2022-10-13T12:25:45;18.10;;;10.43;;
14118;SDS011;7138;49.246;9.100;2022-10-13T12:28:16;20.02;;;10.82;;
14118;SDS011;7138;49.246;9.100;2022-10-13T12:30:49;24.08;;;11.85;;
14118;SDS011;7138;49.246;9.100;2022-10-13T12:33:19;19.38;;;10.20;;
14118;SDS011;7138;49.246;9.100;2022-10-13T12:35:55;17.83;;;10.32;;
14118;SDS011;7138;49.246;9.100;2022-10-13T12:38:35;21.45;;;10.82;;
14118;SDS011;7138;49.246;9.100;2022-10-13T12:41:06;16.23;;;9.80;;
14118;SDS011;7138;49.246;9.100;2022-10-13T12:43:33;17.55;;;10.45;;
14118;SDS011;7138;49.246;9.100;2022-10-13T12:45:59;20.08;;;10.73;;
14118;SDS011;7138;49.246;9.100;2022-10-13T12:48:28;22.55;;;10.75;;
14118;SDS011;7138;49.246;9.100;2022-10-13T12:51:05;17.88;;;9.32;;
14118;SDS011;7138;49.246;9.100;2022-10-13T12:53:39;21.15;;;10.88;;
14118;SDS011;7138;49.246;9.100;2022-10-13T12:56:05;21.88;;;10.60;;
14118;SDS011;7138;49.246;9.100;2022-10-13T12:58:42;21.05;;;10.73;;
14118;SDS011;7138;49.246;9.100;2022-10-13T13:01:15;15.05;;;9.52;;
14118;SDS011;7138;49.246;9.100;2022-10-13T13:03:58;19.73;;;9.85;;
14118;SDS011;7138;49.246;9.100;2022-10-13T13:06:39;21.35;;;10.30;;
14118;SDS011;7138;49.246;9.100;2022-10-13T13:09:22;22.13;;;10.23;;
14118;SDS011;7138;49.246;9.100;2022-10-13T13:14:52;19.67;;;9.85;;
14118;SDS011;7138;49.246;9.100;2022-10-13T13:17:29;18.90;;;9.25;;
14118;SDS011;7138;49.246;9.100;2022-10-13T13:19:57;18.33;;;9.30;;
14118;SDS011;7138;49.246;9.100;2022-10-13T13:22:23;20.08;;;9.40;;
14118;SDS011;7138;49.246;9.100;2022-10-13T13:24:50;19.88;;;10.18;;
14118;SDS011;7138;49.246;9.100;2022-10-13T13:27:17;20.90;;;10.02;;
14118;SDS011;7138;49.246;9.100;2022-10-13T13:29:49;17.90;;;10.00;;
14118;SDS011;7138;49.246;9.100;2022-10-13T13:32:18;18.92;;;10.10;;
14118;SDS011;7138;49.246;9.100;2022-10-13T13:34:45;18.90;;;9.93;;
14118;SDS011;7138;49.246;9.100;2022-10-13T13:37:14;21.27;;;9.65;;
14118;SDS011;7138;49.246;9.100;2022-10-13T13:39:49;20.02;;;8.90;;
14118;SDS011;7138;49.246;9.100;2022-10-13T13:42:15;17.85;;;10.25;;
14118;SDS011;7138;49.246;9.100;2022-10-13T13:44:41;19.45;;;10.45;;
14118;SDS011;7138;49.246;9.100;2022-10-13T13:47:10;19.00;;;10.07;;
14118;SDS011;7138;49.246;9.100;2022-10-13T13:49:44;18.45;;;9.75;;
14118;SDS011;7138;49.246;9.100;2022-10-13T13:52:11;21.52;;;10.50;;
14118;SDS011;7138;49.246;9.100;2022-10-13T13:54:39;23.30;;;10.50;;
14118;SDS011;7138;49.246;9.100;2022-10-13T13:57:06;19.30;;;10.10;;
14118;SDS011;7138;49.246;9.100;2022-10-13T13:59:33;18.75;;;9.82;;
14118;SDS011;7138;49.246;9.100;2022-10-13T14:01:58;21.60;;;10.23;;
14118;SDS011;7138;49.246;9.100;2022-10-13T14:04:25;19.33;;;10.27;;
14118;SDS011;7138;49.246;9.100;2022-10-13T14:06:51;18.55;;;10.40;;
14118;SDS011;7138;49.246;9.100;2022-10-13T14:09:18;18.70;;;10.20;;
14118;SDS011;7138;49.246;9.100;2022-10-13T14:11:44;16.75;;;10.13;;
14118;SDS011;7138;49.246;9.100;2022-10-13T14:14:10;22.42;;;10.60;;
14118;SDS011;7138;49.246;9.100;2022-10-13T14:16:35;21.95;;;9.70;;
14118;SDS011;7138;49.246;9.100;2022-10-13T14:19:01;17.95;;;10.27;;
14118;SDS011;7138;49.246;9.100;2022-10-13T14:21:27;17.35;;;9.82;;
14118;SDS011;7138;49.246;9.100;2022-10-13T14:23:53;24.45;;;10.73;;
14118;SDS011;7138;49.246;9.100;2022-10-13T14:26:20;17.88;;;9.43;;
14118;SDS011;7138;49.246;9.100;2022-10-13T14:28:47;21.27;;;10.55;;
14118;SDS011;7138;49.246;9.100;2022-10-13T14:31:13;22.40;;;11.10;;
14118;SDS011;7138;49.246;9.100;2022-10-13T14:33:39;18.67;;;10.57;;
14118;SDS011;7138;49.246;9.100;2022-10-13T14:36:06;16.50;;;10.15;;
14118;SDS011;7138;49.246;9.100;2022-10-13T14:38:33;19.27;;;9.88;;
14118;SDS011;7138;49.246;9.100;2022-10-13T14:40:59;21.15;;;10.50;;
14118;SDS011;7138;49.246;9.100;2022-10-13T14:43:28;23.90;;;11.43;;
14118;SDS011;7138;49.246;9.100;2022-10-13T14:45:55;21.15;;;10.73;;
14118;SDS011;7138;49.246;9.100;2022-10-13T14:48:25;19.98;;;10.23;;
14118;SDS011;7138;49.246;9.100;2022-10-13T14:50:51;17.17;;;10.93;;
14118;SDS011;7138;49.246;9.100;2022-10-13T14:53:17;18.02;;;9.40;;
14118;SDS011;7138;49.246;9.100;2022-10-13T14:55:43;17.75;;;10.02;;
14118;SDS011;7138;49.246;9.100;2022-10-13T14:58:10;17.95;;;10.15;;
14118;SDS011;7138;49.246;9.100;2022-10-13T15:00:38;16.35;;;8.82;;
14118;SDS011;7138;49.246;9.100;2022-10-13T15:03:06;12.30;;;8.63;;
14118;SDS011;7138;49.246;9.100;2022-10-13T15:05:32;18.70;;;9.27;;
14118;SDS011;7138;49.246;9.100;2022-10-13T15:07:58;14.90;;;9.30;;
14118;SDS011;7138;49.246;9.100;2022-10-13T15:10:24;15.13;;;8.70;;
14118;SDS011;7138;49.246;9.100;2022-10-13T15:12:49;19.77;;;9.38;;
14118;SDS011;7138;49.246;9.100;2022-10-13T15:15:15;18.35;;;9.55;;
14118;SDS011;7138;49.246;9.100;2022-10-13T15:17:43;16.63;;;9.10;;
14118;SDS011;7138;49.246;9.100;2022-10-13T15:20:09;16.75;;;8.25;;
14118;SDS011;7138;49.246;9.100;2022-10-13T15:22:35;16.70;;;9.00;;
14118;SDS011;7138;49.246;9.100;2022-10-13T15:25:01;17.40;;;8.00;;